Time;durP1;ratioP1;P1;durP2;ratioP2;P2;SDS_P1;SDS_P2;PMS_P1;PMS_P2;Temp;Humidity;BMP_temperature;BMP_pressure;BME280_temperature;BME280_humidity;BME280_pressure;Samples;Min_cycle;Max_cycle;Signal;HPM_P1;HPM_P2
2022/05/06 00:04:56;;;;;;;21.13;6.47;;;11.50;99.90;;;;;;20154280;29;20048;-82
2022/05/06 00:14:58;;;;;;;15.93;5.10;;;11.50;99.90;;;;;;20152307;29;20669;-82
2022/05/06 00:24:59;;;;;;;17.05;4.90;;;11.60;99.90;;;;;;20131396;29;20041;-83
2022/05/06 00:35:00;;;;;;;12.95;4.95;;;11.40;99.90;;;;;;20152516;29;20044;-82
2022/05/06 00:45:02;;;;;;;15.25;4.82;;;11.50;99.90;;;;;;20145761;29;20048;-81
2022/05/06 00:55:04;;;;;;;6.90;2.92;;;11.50;99.90;;;;;;20136627;29;20053;-81
2022/05/06 01:05:07;;;;;;;6.45;2.83;;;11.40;99.90;;;;;;20152027;29;20048;-82
2022/05/06 01:15:23;;;;;;;7.95;2.83;;;11.30;99.90;;;;;;20097550;29;20042;-82
2022/05/06 01:25:25;;;;;;;12.07;3.45;;;11.10;99.90;;;;;;20141755;29;20033;-81
2022/05/06 01:35:28;;;;;;;8.27;2.80;;;11.10;99.90;;;;;;20142034;29;20049;-82
2022/05/06 01:45:32;;;;;;;7.78;2.45;;;11.00;99.90;;;;;;20141193;29;20044;-83
2022/05/06 01:55:33;;;;;;;5.18;2.60;;;11.00;99.90;;;;;;20163748;29;20444;-82
2022/05/06 02:05:34;;;;;;;6.35;2.70;;;10.60;99.90;;;;;;20166838;29;20041;-81
2022/05/06 02:15:35;;;;;;;4.18;2.13;;;10.40;99.90;;;;;;20166757;29;20381;-82
2022/05/06 02:25:39;;;;;;;6.18;2.50;;;10.20;99.90;;;;;;20171501;29;20048;-81
2022/05/06 02:35:47;;;;;;;6.93;2.53;;;9.90;99.90;;;;;;20194804;29;20046;-82
2022/05/06 02:45:49;;;;;;;4.25;1.90;;;9.90;99.90;;;;;;20174467;29;20485;-81
2022/05/06 02:55:57;;;;;;;4.38;2.13;;;9.90;99.90;;;;;;20188157;29;20040;-82
2022/05/06 03:05:58;;;;;;;6.13;1.92;;;10.10;99.90;;;;;;20188187;29;20045;-82
2022/05/06 03:26:15;;;;;;;3.28;1.45;;;9.80;99.90;;;;;;20135022;29;20869;-40
2022/05/06 03:36:16;;;;;;;4.35;1.67;;;9.80;99.90;;;;;;20136591;29;20428;-40
2022/05/06 03:46:17;;;;;;;3.60;1.30;;;9.80;99.90;;;;;;20168596;29;20036;-40
2022/05/06 03:56:22;;;;;;;3.78;1.38;;;9.60;99.90;;;;;;20212096;29;20044;-40
2022/05/06 04:06:23;;;;;;;4.35;1.45;;;9.50;99.90;;;;;;20192530;29;20041;-40
2022/05/06 04:16:24;;;;;;;3.45;1.52;;;9.70;99.90;;;;;;20209767;28;20507;-40
2022/05/06 04:26:25;;;;;;;5.15;2.03;;;9.60;99.90;;;;;;20208159;29;20677;-40
2022/05/06 04:36:29;;;;;;;4.00;1.70;;;9.70;99.90;;;;;;20202976;29;20052;-40
2022/05/06 04:46:30;;;;;;;3.50;1.25;;;9.80;99.90;;;;;;20184710;29;20421;-40
2022/05/06 04:56:30;;;;;;;4.00;1.77;;;9.70;99.90;;;;;;20200895;29;20052;-40
2022/05/06 05:06:33;;;;;;;4.30;1.52;;;9.80;99.90;;;;;;20182129;29;20033;-40
2022/05/06 05:16:34;;;;;;;4.85;1.17;;;9.80;99.90;;;;;;20193595;28;20449;-40
2022/05/06 05:26:35;;;;;;;2.83;1.08;;;9.70;99.90;;;;;;20203092;29;20051;-40
2022/05/06 05:36:37;;;;;;;1.80;0.93;;;9.70;99.90;;;;;;20204357;29;20040;-40
2022/05/06 05:56:57;;;;;;;4.93;1.83;;;9.80;99.90;;;;;;20183965;28;20134;-40
2022/05/06 06:06:58;;;;;;;3.83;1.50;;;9.70;99.90;;;;;;20196356;29;20044;-40
2022/05/06 06:16:59;;;;;;;3.65;1.40;;;9.90;99.90;;;;;;20189945;29;20516;-40
2022/05/06 06:27:00;;;;;;;5.28;2.00;;;10.10;99.90;;;;;;20165399;28;20491;-40
2022/05/06 06:37:02;;;;;;;6.38;2.28;;;10.30;99.90;;;;;;20205191;28;20049;-41
2022/05/06 06:47:10;;;;;;;5.18;2.20;;;10.30;99.90;;;;;;20141392;29;20040;-40
2022/05/06 06:57:11;;;;;;;6.18;2.30;;;10.50;99.90;;;;;;20171677;29;20056;-40
2022/05/06 07:17:31;;;;;;;4.07;1.83;;;10.70;99.90;;;;;;20167005;29;20173;-40
2022/05/06 07:27:35;;;;;;;4.60;1.63;;;11.00;99.90;;;;;;20190181;29;21603;-40
2022/05/06 07:37:36;;;;;;;6.25;2.60;;;11.20;99.90;;;;;;20163082;29;20885;-40
2022/05/06 07:47:38;;;;;;;7.22;2.25;;;11.40;99.90;;;;;;20164287;29;20048;-40
2022/05/06 07:57:39;;;;;;;6.93;2.20;;;11.50;99.90;;;;;;20162446;29;20043;-41
2022/05/06 08:07:40;;;;;;;6.93;2.50;;;11.70;99.90;;;;;;20173916;28;20036;-40
2022/05/06 08:17:41;;;;;;;4.32;1.95;;;12.00;99.90;;;;;;20205389;29;20052;-40
2022/05/06 08:27:44;;;;;;;9.18;2.70;;;12.00;99.90;;;;;;20227754;29;20118;-40
2022/05/06 08:37:47;;;;;;;8.15;2.60;;;12.60;99.90;;;;;;20221133;29;20056;-41
2022/05/06 08:58:09;;;;;;;6.55;2.75;;;13.70;99.90;;;;;;20231467;29;20096;-40
2022/05/06 09:08:11;;;;;;;8.98;2.60;;;14.10;99.90;;;;;;20258232;29;20059;-40
2022/05/06 09:18:19;;;;;;;3.97;2.40;;;14.60;99.90;;;;;;20231337;28;20054;-40
2022/05/06 09:28:22;;;;;;;4.93;2.40;;;15.00;99.90;;;;;;20230831;29;20040;-39
2022/05/06 09:38:29;;;;;;;6.40;1.70;;;15.70;99.90;;;;;;20227363;29;20642;-40
2022/05/06 09:48:30;;;;;;;6.10;2.53;;;16.10;99.90;;;;;;20231620;29;20063;-40
2022/05/06 09:58:32;;;;;;;4.40;2.05;;;16.60;99.90;;;;;;20242719;29;20033;-40
2022/05/06 10:08:34;;;;;;;6.25;2.45;;;17.00;99.90;;;;;;20238432;29;21489;-37
2022/05/06 10:18:42;;;;;;;5.03;2.45;;;17.70;99.90;;;;;;20239166;29;20064;-39
2022/05/06 10:39:21;;;;;;;8.10;3.05;;;18.40;99.90;;;;;;20229193;28;20047;-39
2022/05/06 10:49:34;;;;;;;6.57;2.40;;;19.10;99.90;;;;;;20252524;28;20037;-39
2022/05/06 10:59:57;;;;;;;5.18;2.20;;;19.40;99.90;;;;;;20253132;29;20499;-39
2022/05/06 11:10:06;;;;;;;6.68;2.60;;;19.40;99.90;;;;;;20247349;28;20068;-39
2022/05/06 11:20:16;;;;;;;5.72;2.38;;;19.70;99.90;;;;;;20247939;28;20048;-39
2022/05/06 11:30:19;;;;;;;6.15;3.25;;;19.90;99.90;;;;;;20236260;29;20500;-39
2022/05/06 11:50:33;;;;;;;6.78;3.60;;;20.40;99.90;;;;;;20222784;28;20511;-38
2022/05/06 12:00:35;;;;;;;6.20;2.92;;;21.00;99.90;;;;;;20237341;28;20603;-38
2022/05/06 12:10:37;;;;;;;7.28;3.22;;;21.00;99.90;;;;;;20222829;28;20041;-38
2022/05/06 12:20:41;;;;;;;5.10;2.38;;;21.20;99.90;;;;;;20232739;28;20369;-38
2022/05/06 12:30:44;;;;;;;4.88;2.50;;;21.80;99.90;;;;;;20221708;29;20037;-38
2022/05/06 12:40:45;;;;;;;5.00;2.40;;;22.40;99.90;;;;;;20226440;29;20055;-38
2022/05/06 12:50:46;;;;;;;7.10;2.88;;;22.30;99.90;;;;;;20219461;28;20040;-38
2022/05/06 13:00:47;;;;;;;3.95;1.98;;;21.80;99.90;;;;;;20221078;29;20040;-38
2022/05/06 13:10:48;;;;;;;6.95;3.10;;;21.70;99.90;;;;;;20215885;29;20135;-38
2022/05/06 13:20:49;;;;;;;7.03;2.60;;;22.80;99.90;;;;;;20211076;29;20052;-39
2022/05/06 13:30:50;;;;;;;4.43;2.10;;;23.20;99.90;;;;;;20236991;29;20040;-39
2022/05/06 13:40:51;;;;;;;4.97;2.65;;;22.50;99.90;;;;;;20231786;29;20055;-39
2022/05/06 13:50:52;;;;;;;4.07;2.35;;;22.20;99.90;;;;;;20228729;29;20051;-39
2022/05/06 14:00:54;;;;;;;4.38;2.42;;;21.70;99.90;;;;;;20197675;29;20048;-39
2022/05/06 14:10:55;;;;;;;4.45;2.63;;;21.40;99.90;;;;;;20205746;29;20472;-39
2022/05/06 14:20:56;;;;;;;3.50;2.20;;;21.30;99.90;;;;;;20225144;29;20382;-39
2022/05/06 14:30:57;;;;;;;5.30;2.60;;;21.50;99.90;;;;;;20240800;29;20512;-38
2022/05/06 14:40:58;;;;;;;6.47;3.40;;;22.00;99.90;;;;;;20246446;29;20357;-39
2022/05/06 14:51:00;;;;;;;5.20;2.28;;;22.00;99.90;;;;;;20248290;29;20116;-38
2022/05/06 15:01:01;;;;;;;5.30;2.88;;;22.30;99.90;;;;;;20246044;29;20050;-39
2022/05/06 15:11:03;;;;;;;4.22;2.75;;;22.20;99.90;;;;;;20232768;29;20396;-39
2022/05/06 15:21:05;;;;;;;4.93;2.47;;;21.80;99.90;;;;;;20235041;29;20068;-39
2022/05/06 15:31:06;;;;;;;4.30;2.30;;;21.80;99.90;;;;;;20248767;29;20057;-40
2022/05/06 15:41:07;;;;;;;4.30;1.85;;;22.00;99.90;;;;;;20249970;29;20047;-38
2022/05/06 15:51:08;;;;;;;7.05;2.67;;;22.20;99.80;;;;;;20194694;29;20492;-39
2022/05/06 16:01:10;;;;;;;4.03;1.80;;;21.70;99.90;;;;;;20230409;29;20044;-39
2022/05/06 16:11:11;;;;;;;3.03;1.20;;;21.60;99.90;;;;;;20224821;29;20051;-39
2022/05/06 16:21:12;;;;;;;2.63;1.33;;;21.50;99.90;;;;;;20219348;29;20045;-39
2022/05/06 16:31:13;;;;;;;3.30;1.85;;;21.40;99.90;;;;;;20224996;29;20045;-39
2022/05/06 16:41:15;;;;;;;2.03;1.00;;;21.20;99.90;;;;;;20204882;29;20052;-39
2022/05/06 16:51:16;;;;;;;2.55;1.33;;;20.80;99.90;;;;;;20224652;29;20040;-39
2022/05/06 17:01:17;;;;;;;2.88;1.30;;;20.50;99.90;;;;;;20212995;29;20048;-39
2022/05/06 17:11:18;;;;;;;2.22;1.00;;;20.30;99.90;;;;;;20210399;29;20045;-39
2022/05/06 17:21:19;;;;;;;2.60;1.17;;;20.00;99.90;;;;;;20212850;29;20512;-38
2022/05/06 17:31:24;;;;;;;3.35;1.50;;;19.90;99.90;;;;;;20211706;29;20146;-38
2022/05/06 17:41:26;;;;;;;1.50;0.90;;;19.70;99.90;;;;;;20222151;29;20491;-39
2022/05/06 17:51:38;;;;;;;5.35;2.78;;;19.40;99.90;;;;;;20203846;29;20040;-39
2022/05/06 18:01:42;;;;;;;10.00;4.78;;;19.10;99.90;;;;;;20209607;29;20177;-37
2022/05/06 18:11:43;;;;;;;4.15;2.15;;;19.00;99.90;;;;;;20214873;29;20048;-38
2022/05/06 18:21:44;;;;;;;3.45;1.38;;;18.70;99.90;;;;;;20195132;29;20053;-37
2022/05/06 18:42:05;;;;;;;3.50;1.98;;;18.10;99.90;;;;;;20165782;29;20063;-37
2022/05/06 18:52:07;;;;;;;4.00;1.92;;;17.90;99.90;;;;;;20138646;29;20052;-38
2022/05/06 19:02:08;;;;;;;4.45;1.45;;;17.70;99.90;;;;;;20169307;28;20055;-38
2022/05/06 19:12:11;;;;;;;4.22;1.83;;;17.80;99.90;;;;;;20215689;28;20044;-37
2022/05/06 19:32:33;;;;;;;5.30;1.70;;;17.40;99.90;;;;;;20197950;28;20763;-37
2022/05/06 19:42:34;;;;;;;5.03;2.70;;;17.00;99.90;;;;;;20199711;28;20500;-37
2022/05/06 20:02:55;;;;;;;5.05;2.33;;;16.60;99.90;;;;;;20198528;29;20055;-38
2022/05/06 20:13:01;;;;;;;4.18;1.85;;;16.20;99.90;;;;;;20224985;29;20048;-38
2022/05/06 20:23:02;;;;;;;4.20;1.70;;;16.00;99.90;;;;;;20225065;29;20051;-38
2022/05/06 20:33:03;;;;;;;4.65;2.42;;;15.80;99.90;;;;;;20206625;29;20076;-39
2022/05/06 20:43:04;;;;;;;4.00;2.20;;;15.70;99.90;;;;;;20177338;29;20405;-39
2022/05/06 20:53:06;;;;;;;6.05;2.80;;;15.50;99.90;;;;;;20198192;29;20048;-39
2022/05/06 21:03:07;;;;;;;5.50;2.83;;;15.40;99.90;;;;;;20188638;29;20055;-39
2022/05/06 21:13:14;;;;;;;7.07;2.65;;;15.20;99.90;;;;;;20174083;28;20051;-39
2022/05/06 21:23:15;;;;;;;5.63;2.93;;;15.10;99.90;;;;;;20200476;29;20051;-39
2022/05/06 21:33:16;;;;;;;5.15;3.25;;;15.10;99.90;;;;;;20193343;29;20053;-39
2022/05/06 21:43:18;;;;;;;12.00;5.80;;;15.00;99.90;;;;;;20196899;28;20503;-39
2022/05/06 21:53:19;;;;;;;6.75;4.15;;;14.90;99.90;;;;;;20200677;29;20052;-38
2022/05/06 22:03:20;;;;;;;7.35;3.95;;;14.80;99.90;;;;;;20206590;29;20067;-38
2022/05/06 22:13:21;;;;;;;6.63;4.00;;;14.60;99.90;;;;;;20198125;29;20048;-39
2022/05/06 22:23:22;;;;;;;10.88;5.38;;;14.50;99.90;;;;;;20198069;29;20052;-39
2022/05/06 22:54:03;;;;;;;7.55;4.30;;;14.40;99.90;;;;;;20201526;29;20048;-39
2022/05/06 23:04:05;;;;;;;6.63;3.55;;;14.40;99.90;;;;;;20183015;29;20040;-38
2022/05/06 23:14:06;;;;;;;5.38;2.75;;;14.20;99.90;;;;;;20200413;29;20059;-38
2022/05/06 23:24:07;;;;;;;8.40;2.78;;;14.30;99.90;;;;;;20167078;29;20045;-38
2022/05/06 23:34:08;;;;;;;6.22;3.28;;;14.10;99.90;;;;;;20182726;29;20052;-39
2022/05/06 23:44:09;;;;;;;5.82;2.60;;;14.20;99.90;;;;;;20202447;29;20052;-39
2022/05/06 23:54:10;;;;;;;8.23;2.83;;;14.40;99.90;;;;;;20197001;29;20515;-39
